Архив погоды в Котельниче

Метеограмма Котельнич
Пятница, 22 Июня
Время местн. Темп Ветер Видим Явления Облачность нижн/средн/верх Атм. давл. Влжн Точка росы ВНГО R Сост. почвы Tg s
Напр Скр Прв ур.ст ур.м изм
15:00 +22.6° С-З 4 12 20 км - облачно с прояснениями 746 757 -0.2 37% +7° более 2.5 км - - - -
12:00 +21.3° С-З 6 12 20 км - переменная облачность 747 758 +0.9 44% +8.6° 1 км - - - -
09:00 +18.5° С-З 5 10 20 км - переменная облачность 746 757 +1.2 50% +8° более 2.5 км - - - -
06:00 +14.6° С-З 5 7 20 км - переменная облачность 744 756 +1 62% +7.3° более 2.5 км - Сырая (есть малые или большие лужи) - -
03:00 +13.6° С-З 4 6 20 км - облачно с прояснениями 744 755 +1.4 64% +7° 600 м - - - -
00:00 +15.1° С-З 4 6 10 км - облачно 742 753 +1.3 57% +6.7° 600 м - - - -
Четверг, 21 Июня
Время местн. Темп Ветер Видим Явления Облачность нижн/средн/верх Атм. давл. Влжн Точка росы ВНГО R Сост. почвы Tg s
Напр Скр Прв ур.ст ур.м изм
21:00 +15.3° З,С-З 4 7 20 км небо без изменений {ливневые осадки} облачно 741 752 +1.1 58% +7.1° 600 м - - - -
18:00 +14.6° З,С-З 4 6 20 км небо без изменений {ливневые осадки} облачно 740 751 +1.9 65% +8° 600 м - - - -
15:00 +12.8° З 6 12 8 км слабый ливневый дождь облачно 738 749 +0.7 81% +9.7° 600 м - - - -
12:00 +11.2° З 6 13 7 км слабый ливневый дождь облачно 737 748 +0.3 83% +8.4° 600 м - - - -
09:00 +11.6° З 6 12 20 км - облачно 737 748 +0.2 75% +7.4° 600 м - - - -
06:00 +11.6° З 6 12 20 км - облачно 737 748 -0.5 72% +6.8° 600 м - Влажная (без луж) - -
03:00 +9.8° З 5 9 20 км - облачно с прояснениями 737 749 -0.7 80% +6.5° 1 км - - - -
00:00 +10° З 4 9 10 км - переменная облачность 738 749 -0.2 83% +7.3° более 2.5 км - - - -
Среда, 20 Июня
Время местн. Темп Ветер Видим Явления Облачность нижн/средн/верх Атм. давл. Влжн Точка росы ВНГО R Сост. почвы Tg s
Напр Скр Прв ур.ст ур.м изм
21:00 +11.9° З 4 10 20 км небо без изменений {гроза, ливневые осадки} переменная облачность 738 749 -0.1 70% +6.7° 1 км - - - -
18:00 +13.8° З 5 15 20 км небо без изменений {гроза} переменная облачность 738 749 +1.4 66% +7.6° 600 м 7 - - -
15:00 +17.5° З,С-З 6 13 20 км небо без изменений {гроза} переменная облачность 737 748 0 51% +7.4° 600 м - - - -
12:00 +13.2° З 2 16 20 км ливневый дождь {гроза} преимущественно облачно 737 748 -0.5 82% +10.2° 600 м - - - -
09:00 +16.5° Ю 1 5 8 км слабый ливневый дождь облачно 737 748 -2 87% +14.4° 600 м - - - -
06:00 +17.3° Ю-В 1 5 15 км - облачно 739 750 -2.3 78% +13.4° 600 м 0.3 Влажная (без луж) +15° -
03:00 +15° Ю 1 2 20 км - переменная облачность 741 753 -1.1 86% +12.6° 600 м - - - -
00:00 +17° З 1 2 10 км - облачно 743 754 -0.8 68% +11.1° 600 м - - - -
Вторник, 19 Июня
Время местн. Темп Ветер Видим Явления Облачность нижн/средн/верх Атм. давл. Влжн Точка росы ВНГО R Сост. почвы Tg s
Напр Скр Прв ур.ст ур.м изм
21:00 +16.6° штиль 0 0 20 км - облачно 743 754 0 75% +12.1° 600 м - - - -
18:00 +24.8° В 1 2 20 км - облачно с прояснениями 743 754 -1.8 49% +13.5° 1 км - - - -
15:00 +26.2° С-З 2 4 20 км - облачно с прояснениями 745 756 -1 33% +8.8° 1 км - - - -
12:00 +26.8° С,С-З 2 4 20 км - переменная облачность 746 757 -0.8 33% +9.2° 1 км - - - -